createdAt,value
2022-09-18T00:02:37.796Z,49.57
2022-09-18T00:05:26.209Z,52.10
2022-09-18T00:08:24.963Z,54.83
2022-09-18T00:11:16.105Z,56.67
2022-09-18T00:14:07.219Z,58.43
2022-09-18T00:16:55.761Z,58.77
2022-09-18T00:19:44.156Z,58.77
2022-09-18T00:22:32.426Z,59.50
2022-09-18T00:25:22.166Z,60.77
2022-09-18T00:28:16.683Z,61.63
2022-09-18T00:31:06.416Z,63.33
2022-09-18T00:34:02.694Z,65.03
2022-09-18T00:36:51.034Z,66.83
2022-09-18T00:39:45.534Z,65.27
2022-09-18T00:42:35.209Z,66.20
2022-09-18T00:45:29.596Z,66.97
2022-09-18T00:48:18.791Z,68.53
2022-09-18T00:51:07.670Z,68.80
2022-09-18T00:54:07.931Z,69.47
2022-09-18T00:57:01.463Z,69.53
2022-09-18T00:59:53.213Z,69.67
2022-09-18T01:02:43.057Z,70.40
2022-09-18T01:05:59.144Z,69.80
2022-09-18T01:09:01.986Z,71.10
2022-09-18T01:11:55.648Z,69.47
2022-09-18T01:14:54.760Z,70.20
2022-09-18T01:17:51.844Z,70.50
2022-09-18T01:20:57.990Z,71.10
2022-09-18T01:24:10.361Z,72.03
2022-09-18T01:27:02.560Z,71.77
2022-09-18T01:30:06.886Z,71.93
2022-09-18T01:32:59.370Z,72.43
2022-09-18T01:35:53.802Z,71.63
2022-09-18T01:38:49.582Z,72.17
2022-09-18T01:41:41.534Z,73.37
2022-09-18T01:44:34.704Z,72.53
2022-09-18T01:47:31.924Z,73.23
2022-09-18T01:50:21.051Z,71.87
2022-09-18T01:53:22.330Z,70.27
2022-09-18T01:56:15.122Z,71.60
2022-09-18T01:59:08.699Z,70.67
2022-09-18T02:02:11.885Z,69.77
2022-09-18T02:05:07.643Z,69.20
2022-09-18T02:08:09.245Z,68.90
2022-09-18T02:11:04.097Z,68.80
2022-09-18T02:13:59.483Z,67.27
2022-09-18T02:17:04.485Z,68.33
2022-09-18T02:20:00.294Z,67.97
2022-09-18T02:22:54.123Z,68.90
2022-09-18T02:25:45.849Z,66.23
2022-09-18T02:28:37.362Z,65.70
2022-09-18T02:31:26.075Z,63.80
2022-09-18T02:34:23.576Z,63.00
2022-09-18T02:37:32.092Z,61.47
2022-09-18T02:40:31.646Z,60.77
2022-09-18T02:43:36.843Z,61.17
2022-09-18T02:46:38.033Z,62.00
2022-09-18T02:49:36.995Z,62.33
2022-09-18T02:52:31.931Z,62.67
2022-09-18T02:55:28.439Z,60.87
2022-09-18T02:58:22.623Z,61.23
2022-09-18T03:01:15.596Z,61.27
2022-09-18T03:04:05.799Z,61.73
2022-09-18T03:07:16.021Z,63.37
2022-09-18T03:10:05.537Z,63.67
2022-09-18T03:13:01.522Z,64.00
2022-09-18T03:15:50.101Z,65.40
2022-09-18T03:18:46.252Z,65.57
2022-09-18T03:21:34.847Z,64.60
2022-09-18T03:24:25.783Z,64.97
2022-09-18T03:27:23.573Z,64.90
2022-09-18T03:30:15.643Z,65.07
2022-09-18T03:33:04.233Z,64.97
2022-09-18T03:35:59.802Z,65.30
2022-09-18T03:38:48.382Z,65.17
2022-09-18T03:41:42.981Z,65.07
2022-09-18T03:44:31.321Z,65.37
2022-09-18T03:47:23.070Z,65.27
2022-09-18T03:50:11.873Z,65.30
2022-09-18T03:53:09.584Z,64.27
2022-09-18T03:56:04.040Z,62.73
2022-09-18T03:59:24.885Z,63.00
2022-09-18T04:02:29.315Z,63.60
2022-09-18T04:05:36.258Z,63.90
2022-09-18T04:08:43.250Z,63.57
2022-09-18T04:11:45.646Z,62.90
2022-09-18T04:14:34.066Z,62.50
2022-09-18T04:17:29.772Z,63.43
2022-09-18T04:20:19.041Z,63.90
2022-09-18T04:23:07.795Z,65.50
2022-09-18T04:26:09.431Z,64.50
2022-09-18T04:29:02.761Z,65.47
2022-09-18T04:31:52.160Z,65.37
2022-09-18T04:34:44.436Z,64.27
2022-09-18T04:37:33.188Z,64.00
2022-09-18T04:40:23.314Z,63.63
2022-09-18T04:43:12.798Z,64.90
2022-09-18T04:46:02.207Z,64.27
2022-09-18T04:48:51.479Z,63.57
2022-09-18T04:51:45.990Z,61.97
2022-09-18T04:54:37.720Z,61.57
2022-09-18T04:57:32.159Z,62.07
2022-09-18T05:00:21.062Z,61.27
2022-09-18T05:03:10.306Z,61.27
2022-09-18T05:06:01.004Z,60.90
2022-09-18T05:08:50.952Z,61.37
2022-09-18T05:11:40.702Z,61.43
2022-09-18T05:14:29.228Z,60.00
2022-09-18T05:17:22.277Z,60.73
2022-09-18T05:20:20.993Z,60.23
2022-09-18T05:23:10.026Z,59.67
2022-09-18T05:25:59.905Z,59.70
2022-09-18T05:28:57.075Z,58.27
2022-09-18T05:31:45.643Z,59.00
2022-09-18T05:34:36.395Z,59.03
2022-09-18T05:37:30.616Z,56.57
2022-09-18T05:40:19.241Z,56.00
2022-09-18T05:43:15.490Z,54.43
2022-09-18T05:46:04.351Z,53.30
2022-09-18T05:49:01.719Z,53.57
2022-09-18T05:51:58.987Z,51.53
2022-09-18T05:54:50.525Z,49.17
2022-09-18T05:57:47.529Z,48.13
2022-09-18T06:00:37.356Z,46.33
2022-09-18T06:03:32.145Z,45.13
2022-09-18T06:06:28.445Z,44.87
2022-09-18T06:09:16.913Z,44.13
2022-09-18T06:12:11.619Z,44.10
2022-09-18T06:15:00.343Z,44.97
2022-09-18T06:17:56.918Z,45.00
2022-09-18T06:20:52.635Z,44.47
2022-09-18T06:23:43.252Z,46.10
2022-09-18T06:26:45.998Z,45.23
2022-09-18T06:29:35.077Z,44.53
2022-09-18T06:32:36.146Z,44.90
2022-09-18T06:35:33.989Z,43.83
2022-09-18T06:38:22.500Z,39.10
2022-09-18T06:41:13.032Z,35.83
2022-09-18T06:44:09.820Z,32.37
2022-09-18T06:47:03.817Z,33.50
2022-09-18T06:50:00.253Z,30.33
2022-09-18T06:53:02.969Z,26.97
2022-09-18T06:55:54.640Z,27.03
2022-09-18T06:58:53.165Z,26.47
2022-09-18T07:01:42.236Z,25.03
2022-09-18T07:04:40.069Z,23.00
2022-09-18T07:07:34.888Z,21.83
2022-09-18T07:10:25.572Z,21.13
2022-09-18T07:13:13.976Z,20.23
2022-09-18T07:16:07.158Z,20.43
2022-09-18T07:19:01.670Z,17.90
2022-09-18T07:21:53.290Z,16.93
2022-09-18T07:24:41.616Z,18.17
2022-09-18T07:27:40.840Z,17.60
2022-09-18T07:30:29.460Z,16.13
2022-09-18T07:33:21.112Z,17.17
2022-09-18T07:36:16.628Z,16.50
2022-09-18T07:39:05.616Z,16.13
2022-09-18T07:42:09.832Z,14.77
2022-09-18T07:44:59.837Z,14.53
2022-09-18T07:47:48.240Z,14.57
2022-09-18T07:50:36.888Z,14.43
2022-09-18T07:53:34.348Z,13.67
2022-09-18T07:56:23.443Z,14.03
2022-09-18T07:59:20.884Z,14.00
2022-09-18T08:02:16.697Z,13.33
2022-09-18T08:05:05.676Z,13.57
2022-09-18T08:08:05.281Z,13.40
2022-09-18T08:11:13.901Z,13.00
2022-09-18T08:14:07.450Z,12.67
2022-09-18T08:17:00.352Z,13.00
2022-09-18T08:20:01.886Z,13.33
2022-09-18T08:23:13.796Z,12.70
2022-09-18T08:26:09.787Z,12.80
2022-09-18T08:28:58.855Z,12.07
2022-09-18T08:31:53.756Z,11.87
2022-09-18T08:34:43.734Z,11.47
2022-09-18T08:37:37.250Z,11.17
2022-09-18T08:40:58.040Z,10.20
2022-09-18T08:43:57.356Z,9.17
2022-09-18T08:46:51.829Z,8.70
2022-09-18T08:49:46.536Z,8.80
2022-09-18T08:52:44.351Z,8.93
2022-09-18T08:55:49.898Z,9.10
2022-09-18T08:58:59.547Z,9.17
2022-09-18T09:01:57.244Z,8.47
2022-09-18T09:04:47.491Z,7.40
2022-09-18T09:08:15.848Z,7.30
2022-09-18T09:11:13.560Z,6.70
2022-09-18T09:14:34.451Z,7.60
2022-09-18T09:17:40.890Z,6.90
2022-09-18T09:20:45.641Z,6.03
2022-09-18T09:23:51.562Z,5.00
2022-09-18T09:26:57.384Z,5.60
2022-09-18T09:30:22.396Z,5.53
2022-09-18T09:33:36.687Z,5.00
2022-09-18T09:37:02.005Z,5.80
2022-09-18T09:39:56.779Z,7.00
2022-09-18T09:42:51.609Z,7.00
2022-09-18T09:45:46.137Z,8.43
2022-09-18T09:48:42.751Z,9.80
2022-09-18T09:51:40.685Z,11.30
2022-09-18T09:54:29.190Z,12.60
2022-09-18T09:57:34.077Z,11.93
2022-09-18T10:00:24.933Z,13.40
2022-09-18T10:03:42.495Z,14.43
2022-09-18T10:06:50.377Z,12.67
2022-09-18T10:09:47.407Z,12.57
2022-09-18T10:12:46.447Z,10.97
2022-09-18T10:15:40.785Z,9.90
2022-09-18T10:18:36.375Z,9.37
2022-09-18T10:21:28.409Z,8.43
2022-09-18T10:24:23.660Z,8.00
2022-09-18T10:27:16.562Z,7.33
2022-09-18T10:30:12.945Z,6.90
2022-09-18T10:33:32.805Z,6.80
2022-09-18T10:36:28.310Z,6.47
2022-09-18T10:39:19.897Z,7.03
2022-09-18T10:42:17.789Z,6.60
2022-09-18T10:45:21.757Z,6.10
2022-09-18T10:48:15.705Z,5.70
2022-09-18T10:51:06.456Z,5.63
2022-09-18T10:54:16.162Z,6.73
2022-09-18T10:57:29.337Z,6.70
2022-09-18T11:00:49.681Z,6.33
2022-09-18T11:03:43.838Z,5.70
2022-09-18T11:06:39.440Z,6.13
2022-09-18T11:09:42.872Z,6.10
2022-09-18T11:12:35.179Z,5.43
2022-09-18T11:15:33.700Z,4.90
2022-09-18T11:18:23.722Z,3.83
2022-09-18T11:21:19.084Z,4.20
2022-09-18T11:24:19.576Z,4.70
2022-09-18T11:27:20.750Z,5.87
2022-09-18T11:30:16.505Z,8.00
2022-09-18T11:33:20.769Z,9.37
2022-09-18T11:36:13.093Z,10.60
2022-09-18T11:39:03.174Z,10.57
2022-09-18T11:41:56.773Z,11.70
2022-09-18T11:44:46.131Z,14.30
2022-09-18T11:47:42.014Z,13.77
2022-09-18T11:50:36.288Z,14.70
2022-09-18T11:53:29.601Z,16.53
2022-09-18T11:56:32.590Z,18.07
2022-09-18T11:59:30.740Z,18.77
2022-09-18T12:02:28.261Z,17.47
2022-09-18T12:05:24.465Z,14.60
2022-09-18T12:08:19.427Z,10.97
2022-09-18T12:11:20.131Z,10.50
2022-09-18T12:14:17.699Z,10.10
2022-09-18T12:17:26.062Z,9.33
2022-09-18T12:20:22.852Z,9.13
2022-09-18T12:23:14.866Z,9.77
2022-09-18T12:26:21.387Z,9.10
2022-09-18T12:29:26.731Z,9.57
2022-09-18T12:32:32.772Z,10.60
2022-09-18T12:35:33.297Z,12.57
2022-09-18T12:38:46.652Z,14.07
2022-09-18T12:41:48.987Z,15.13
2022-09-18T12:44:54.162Z,15.63
2022-09-18T12:48:01.858Z,14.80
2022-09-18T12:51:02.413Z,14.57
2022-09-18T12:54:14.306Z,15.10
2022-09-18T12:57:19.273Z,16.30
2022-09-18T13:00:11.658Z,17.50
2022-09-18T13:03:09.841Z,18.77
2022-09-18T13:06:02.800Z,19.47
2022-09-18T13:08:57.910Z,19.43
2022-09-18T13:11:51.283Z,20.83
2022-09-18T13:14:44.393Z,22.53
2022-09-18T13:17:37.597Z,25.40
2022-09-18T13:20:32.642Z,24.30
2022-09-18T13:23:24.138Z,23.67
2022-09-18T13:26:16.014Z,22.83
2022-09-18T13:29:05.479Z,21.53
2022-09-18T13:31:54.907Z,20.70
2022-09-18T13:34:50.104Z,21.57
2022-09-18T13:37:39.980Z,22.13
2022-09-18T13:40:35.936Z,20.23
2022-09-18T13:43:39.741Z,18.17
2022-09-18T13:46:39.692Z,17.27
2022-09-18T13:49:32.148Z,17.40
2022-09-18T13:52:46.110Z,17.90
2022-09-18T13:55:48.450Z,19.10
2022-09-18T13:58:47.980Z,20.43
2022-09-18T14:02:23.023Z,21.63
2022-09-18T14:05:30.892Z,22.60
2022-09-18T14:08:39.430Z,22.67
2022-09-18T14:11:33.916Z,23.50
2022-09-18T14:14:25.861Z,23.70
2022-09-18T14:17:16.358Z,23.63
2022-09-18T14:20:18.749Z,24.70
2022-09-18T14:23:41.447Z,26.20
2022-09-18T14:26:56.783Z,25.43
2022-09-18T14:29:48.549Z,25.17
2022-09-18T14:32:37.130Z,23.63
2022-09-18T14:35:44.916Z,23.57
2022-09-18T14:38:35.861Z,23.87
2022-09-18T14:41:28.681Z,22.73
2022-09-18T14:44:18.664Z,22.40
2022-09-18T14:47:22.317Z,22.70
2022-09-18T14:50:27.595Z,23.67
2022-09-18T14:53:21.959Z,25.30
2022-09-18T14:56:13.739Z,26.30
2022-09-18T14:59:06.045Z,27.77
2022-09-18T15:02:12.933Z,28.37
2022-09-18T15:05:03.752Z,29.30
2022-09-18T15:07:56.133Z,29.20
2022-09-18T15:10:49.445Z,29.00
2022-09-18T15:13:39.026Z,29.87
2022-09-18T15:16:36.545Z,30.43
2022-09-18T15:19:27.195Z,32.50
2022-09-18T15:22:22.458Z,33.40
2022-09-18T15:25:13.589Z,33.83
2022-09-18T15:28:07.806Z,34.43
2022-09-18T15:31:03.650Z,35.17
2022-09-18T15:33:58.528Z,33.20
2022-09-18T15:36:56.606Z,31.07
2022-09-18T15:39:48.328Z,28.77
2022-09-18T15:42:40.029Z,26.50
2022-09-18T15:45:30.675Z,25.30
2022-09-18T15:48:37.017Z,22.87
2022-09-18T15:51:28.003Z,23.90
2022-09-18T15:54:28.869Z,23.27
2022-09-18T15:57:17.331Z,23.93
2022-09-18T16:00:19.376Z,24.90
2022-09-18T16:03:09.744Z,24.27
2022-09-18T16:06:08.802Z,24.43
2022-09-18T16:08:58.353Z,24.93
2022-09-18T16:11:48.565Z,24.80
2022-09-18T16:14:42.878Z,24.77
2022-09-18T16:17:55.128Z,26.10
2022-09-18T16:20:45.448Z,28.30
2022-09-18T16:23:36.474Z,28.57
2022-09-18T16:26:29.782Z,29.20
2022-09-18T16:29:22.530Z,29.83
2022-09-18T16:32:12.789Z,30.20
2022-09-18T16:35:01.586Z,29.97
2022-09-18T16:37:51.097Z,30.33
2022-09-18T16:40:48.947Z,30.80
2022-09-18T16:43:37.405Z,30.30
2022-09-18T16:46:33.968Z,30.57
2022-09-18T16:49:26.456Z,30.47
2022-09-18T16:52:15.188Z,31.20
2022-09-18T16:55:10.878Z,31.60
2022-09-18T16:57:59.988Z,32.17
2022-09-18T17:00:54.450Z,32.87
2022-09-18T17:03:44.493Z,33.27
2022-09-18T17:06:39.487Z,32.80
2022-09-18T17:09:28.185Z,33.40
2022-09-18T17:12:23.893Z,34.13
2022-09-18T17:15:12.346Z,34.63
2022-09-18T17:18:06.972Z,35.90
2022-09-18T17:20:57.133Z,36.47
2022-09-18T17:23:51.962Z,37.33
2022-09-18T17:26:42.268Z,37.73
2022-09-18T17:29:36.720Z,37.73
2022-09-18T17:32:25.073Z,38.93
2022-09-18T17:35:19.572Z,38.57
2022-09-18T17:38:09.304Z,39.17
2022-09-18T17:41:06.517Z,39.50
2022-09-18T17:43:55.321Z,41.43
2022-09-18T17:46:52.707Z,41.90
2022-09-18T17:49:41.274Z,43.23
2022-09-18T17:52:38.752Z,44.50
2022-09-18T17:55:28.629Z,43.97
2022-09-18T17:58:17.181Z,44.90
2022-09-18T18:01:16.950Z,44.53
2022-09-18T18:04:05.828Z,45.20
2022-09-18T18:06:54.301Z,44.83
2022-09-18T18:09:42.611Z,45.50
2022-09-18T18:12:41.874Z,43.73
2022-09-18T18:15:30.402Z,45.80
2022-09-18T18:18:28.759Z,46.23
2022-09-18T18:21:17.577Z,45.37
2022-09-18T18:24:09.171Z,47.50
2022-09-18T18:26:58.060Z,47.77
2022-09-18T18:29:57.225Z,48.13
2022-09-18T18:32:45.711Z,49.20
2022-09-18T18:35:36.889Z,49.03
2022-09-18T18:38:25.519Z,49.23
2022-09-18T18:41:25.047Z,49.87
2022-09-18T18:44:13.471Z,50.07
2022-09-18T18:47:03.238Z,49.87
2022-09-18T18:49:54.269Z,49.80
2022-09-18T18:52:43.322Z,50.50
2022-09-18T18:55:31.686Z,49.57
2022-09-18T18:58:20.485Z,51.10
2022-09-18T19:01:19.462Z,51.23
2022-09-18T19:04:11.373Z,51.80
2022-09-18T19:06:59.727Z,51.83
2022-09-18T19:09:54.213Z,50.40
2022-09-18T19:12:42.594Z,47.73
2022-09-18T19:15:38.529Z,46.63
2022-09-18T19:18:26.955Z,45.83
2022-09-18T19:21:23.311Z,45.47
2022-09-18T19:24:13.377Z,45.67
2022-09-18T19:27:08.149Z,45.57
2022-09-18T19:29:56.537Z,45.40
2022-09-18T19:32:54.611Z,46.10
2022-09-18T19:35:42.985Z,48.23
2022-09-18T19:38:38.709Z,49.67
2022-09-18T19:41:33.621Z,50.90
2022-09-18T19:44:28.062Z,52.27
2022-09-18T19:47:21.666Z,52.87
2022-09-18T19:50:18.866Z,53.33
2022-09-18T19:53:07.542Z,54.03
2022-09-18T19:56:18.447Z,53.43
2022-09-18T19:59:16.652Z,55.60
2022-09-18T20:02:13.317Z,54.10
2022-09-18T20:05:02.142Z,54.30
2022-09-18T20:07:56.710Z,53.60
2022-09-18T20:10:45.103Z,53.77
2022-09-18T20:13:41.189Z,54.13
2022-09-18T20:16:29.702Z,53.20
2022-09-18T20:19:24.842Z,53.00
2022-09-18T20:22:13.206Z,52.70
2022-09-18T20:25:05.280Z,51.77
2022-09-18T20:27:53.643Z,52.90
2022-09-18T20:30:43.520Z,53.77
2022-09-18T20:33:32.005Z,53.37
2022-09-18T20:36:20.336Z,53.70
2022-09-18T20:39:09.201Z,53.93
2022-09-18T20:42:00.733Z,52.07
2022-09-18T20:44:49.172Z,51.60
2022-09-18T20:47:39.119Z,51.50
2022-09-18T20:50:28.050Z,50.53
2022-09-18T20:53:19.249Z,50.00
2022-09-18T20:56:08.201Z,49.70
2022-09-18T20:59:05.554Z,49.13
2022-09-18T21:01:53.890Z,49.30
2022-09-18T21:04:47.103Z,49.07
2022-09-18T21:07:36.062Z,49.23
2022-09-18T21:10:33.833Z,48.80
2022-09-18T21:13:22.591Z,48.97
2022-09-18T21:16:10.983Z,48.40
2022-09-18T21:19:06.835Z,49.53
2022-09-18T21:21:57.177Z,49.43
2022-09-18T21:24:46.403Z,49.03
2022-09-18T21:27:34.778Z,48.73
2022-09-18T21:30:26.312Z,48.90
2022-09-18T21:33:15.960Z,48.43
2022-09-18T21:36:10.682Z,48.47
2022-09-18T21:39:00.870Z,48.07
2022-09-18T21:41:55.949Z,47.43
2022-09-18T21:44:45.782Z,47.43
2022-09-18T21:47:34.183Z,47.93
2022-09-18T21:50:22.928Z,46.50
2022-09-18T21:53:11.488Z,46.93
2022-09-18T21:56:02.533Z,46.00
2022-09-18T21:58:51.060Z,45.73
2022-09-18T22:01:46.938Z,46.13
2022-09-18T22:04:35.562Z,46.50
2022-09-18T22:07:29.953Z,46.33
2022-09-18T22:10:18.452Z,46.20
2022-09-18T22:13:14.247Z,45.60
2022-09-18T22:16:03.282Z,45.90
2022-09-18T22:18:58.094Z,46.07
2022-09-18T22:21:48.107Z,46.57
2022-09-18T22:24:42.219Z,45.87
2022-09-18T22:27:30.605Z,44.93
2022-09-18T22:30:27.033Z,45.37
2022-09-18T22:33:15.324Z,45.37
2022-09-18T22:36:09.781Z,44.90
2022-09-18T22:38:58.035Z,44.77
2022-09-18T22:41:52.618Z,45.37
2022-09-18T22:44:40.895Z,45.10
2022-09-18T22:47:31.211Z,45.07
2022-09-18T22:50:19.493Z,45.73
2022-09-18T22:53:14.063Z,44.10
2022-09-18T22:56:04.396Z,45.17
2022-09-18T22:58:54.341Z,43.63
2022-09-18T23:01:48.974Z,42.07
2022-09-18T23:04:38.700Z,41.67
2022-09-18T23:07:36.000Z,41.63
2022-09-18T23:10:24.426Z,41.57
2022-09-18T23:13:24.792Z,41.23
2022-09-18T23:16:14.113Z,42.77
2022-09-18T23:19:16.522Z,44.33
2022-09-18T23:22:10.050Z,44.43
2022-09-18T23:24:58.480Z,44.97
2022-09-18T23:27:53.752Z,44.70
2022-09-18T23:30:42.064Z,45.17
2022-09-18T23:33:36.765Z,46.10
2022-09-18T23:36:27.043Z,46.57
2022-09-18T23:39:24.549Z,45.63
2022-09-18T23:42:12.868Z,48.03
2022-09-18T23:45:08.312Z,47.53
2022-09-18T23:47:56.639Z,47.97
2022-09-18T23:50:44.881Z,47.13
2022-09-18T23:53:38.029Z,47.13
2022-09-18T23:56:29.229Z,47.17
2022-09-18T23:59:22.679Z,47.80
